Reebok Ragnar Relay - Reach the Beach

Friday, September 15, 2017 5:05 AM (GMT-5) - Final results

Race info
Sport: Running - road
Location: Jefferson, NH, United States
Start type: Interval wave start
Wave grouping: Custom
Racers: 81
Timed on: iPad
Timed with: Webscorer PRO 2.8
Updated: Tuesday, October 3, 2017 8:12 AM (GMT-5)
Organized by: Reebok Ragnar Relay
Race website: https://www.runragnar.com/event-detail/relay/reachthebeach

Contact organizer

Use this form to send an email to the organizer.

Your name
Your email address
Confirm email address
Message to organizer
Send

Place Bib Racer name Category Finish time
142Kale And Quinwhaaat?Mixed 26:46:03.6--100%18.21%18.66%
29Fruit BasketsMixed 26:47:01.8+0:58.2+0.06%99.94%18.16%18.61%
36Uncle Filthys Scrambled LeggsMixed 27:34:27.7+48:24.1+3.01%97.07%15.75%16.21%
496Uncle Filthys Kissin CousinsMixed 27:51:53.3+1:05:49.7+4.10%96.06%14.86%15.32%
516We Got The RunsMixed 28:22:54.5+1:36:50.9+6.03%94.31%13.28%13.75%
686Blood Sweat & BeersMixed 28:33:05.5+1:47:01.9+6.66%93.75%12.76%13.24%
714The Muddy CalvesMixed 28:36:03.8+1:50:00.2+6.85%93.59%12.61%13.09%
8380Team RocketMixed 28:48:37.9+2:02:34.3+7.63%92.91%11.97%12.45%
9470Keeping Our Day JobsMixed 28:58:42.4+2:12:38.8+8.26%92.37%11.46%11.94%
10127Nights WatchMixed 29:20:23.5+2:34:19.9+9.61%91.23%10.35%10.84%
11191Running PeepsMixed 29:33:51.7+2:47:48.1+10.45%90.54%9.67%10.16%
12115Bad Runners...Great Hockey!Mixed 29:39:38.6+2:53:35.0+10.81%90.25%9.37%9.87%
13150Are We Out of the Woods Yet?Mixed 29:45:41.8+2:59:38.2+11.18%89.94%9.07%9.56%
14233Between a Walk and a Hard Pace_KwolekMixed 30:25:12.2+3:39:08.6+13.64%87.99%7.05%7.56%
15221Molecular MisfitsMixed 30:29:29.8+3:43:26.2+13.91%87.79%6.83%7.34%
16443Speed KillsMixed 30:32:33.8+3:46:30.2+14.10%87.64%6.68%7.19%
17490Cake WalkMixed 30:40:22.1+3:54:18.5+14.59%87.27%6.28%6.79%
18117Sole MatesMixed 30:47:07.4+4:01:03.8+15.01%86.95%5.94%6.45%
19136Syracuse 12-packMixed 30:47:51.7+4:01:48.1+15.06%86.91%5.90%6.41%
20394PERFECT STRANGERSMixed 30:48:52.8+4:02:49.2+15.12%86.87%5.85%6.36%
21285Assorted DozenMixed 30:58:53.7+4:12:50.1+15.74%86.40%5.34%5.85%
22312The Pascagoula RunnersMixed 31:09:56.7+4:23:53.1+16.43%85.89%4.77%5.29%
2390Hurts So GoodMixed 31:13:54.5+4:27:50.9+16.68%85.71%4.57%5.09%
24457RumRunnersMixed 31:40:00.9+4:53:57.3+18.30%84.53%3.24%3.77%
25290Hannahs Irish BombersMixed 31:43:43.0+4:57:39.4+18.53%84.36%3.05%3.58%
26151#WeAreDumbMixed 31:53:28.1+5:07:24.5+19.14%83.93%2.56%3.09%
27280Meat Sweats & Mosquito BitesMixed 32:01:17.6+5:15:14.0+19.63%83.59%2.16%2.69%
28421GuacamoleMixed 32:05:03.9+5:19:00.3+19.86%83.43%1.97%2.50%
2989Dancin With The CarsMixed 32:06:56.7+5:20:53.1+19.98%83.35%1.87%2.41%
3037Jeremys Bootcamp Team 1Mixed 32:08:59.7+5:22:56.1+20.11%83.26%1.77%2.30%
31228Crazy TrainMixed 32:14:07.8+5:28:04.2+20.43%83.04%1.51%2.04%
32393Changes in Latitude Changes in AttitudeMixed 32:20:26.0+5:34:22.4+20.82%82.77%1.19%1.72%
33318Run like the Wind/Pick up the PaceMixed 32:22:06.8+5:36:03.2+20.92%82.70%1.10%1.64%
34164SharksWithFrickinLaserBeamsAttachedToTheMixed 32:27:34.9+5:41:31.3+21.26%82.46%0.82%1.36%
35362Running with the NightMixed 32:44:23.5+5:58:19.9+22.31%81.76%-0.03%0.51%
36211Rogue Run: A Downhill StoryMixed 32:44:40.4+5:58:36.8+22.33%81.75%-0.05%0.49%
37214�Carriage Town RunnersMixed 32:44:46.5+5:58:42.9+22.34%81.74%-0.05%0.49%
38225Nevertheless They PersistedMixed 32:45:49.0+5:59:45.4+22.40%81.70%-0.11%0.44%
3973Brew CrewMixed 32:45:53.6+5:59:50.0+22.40%81.70%-0.11%0.43%
40347Team Mike McNeil - NESMixed 32:48:35.7+6:02:32.1+22.57%81.58%-0.25%0.30%
41268Run like a CanadianMixed 33:00:16.2+6:14:12.6+23.30%81.10%-0.84%-0.30%
42168Reebok Ragnarians 1 Wehawesome SauceMixed 33:10:37.1+6:24:33.5+23.94%80.68%-1.37%-0.82%
43194Just 4 FunMixed 33:12:07.7+6:26:04.1+24.04%80.62%-1.45%-0.90%
44114CPR (Cool People Running)Mixed 33:17:37.8+6:31:34.2+24.38%80.40%-1.73%-1.17%
4580Shepley BulfinchMixed 33:18:01.5+6:31:57.9+24.41%80.38%-1.75%-1.19%
46340Run Free or Die TryingMixed 33:18:31.7+6:32:28.1+24.44%80.36%-1.77%-1.22%
4752Beaches UnitedMixed 33:23:40.4+6:37:36.8+24.76%80.16%-2.04%-1.48%
4838Jeremys Bootcamp Team 2Mixed 33:26:00.2+6:39:56.6+24.90%80.06%-2.15%-1.60%
49243RTB 4 lyfe!Mixed 33:26:34.4+6:40:30.8+24.94%80.04%-2.18%-1.63%
50294Run Track MindsMixed 33:29:06.8+6:43:03.2+25.10%79.94%-2.31%-1.76%
51163Blood Guts and GloryMixed 33:36:22.8+6:50:19.2+25.55%79.65%-2.68%-2.12%
52219Nevertheless We PersistedMixed 33:38:20.4+6:52:16.8+25.67%79.57%-2.78%-2.22%
53167Dump and RunMixed 33:47:14.9+7:01:11.3+26.22%79.22%-3.24%-2.67%
5426The Knights who say Ni!Mixed 33:54:34.9+7:08:31.3+26.68%78.94%-3.61%-3.05%
55333Frequent FlyersMixed 33:56:01.4+7:09:57.8+26.77%78.88%-3.68%-3.12%
56461The MisfitsMixed 34:01:51.4+7:15:47.8+27.13%78.66%-3.98%-3.41%
57374Undertrained & OverconfidentMixed 34:09:43.6+7:23:40.0+27.62%78.35%-4.38%-3.81%
58403Flocking FlamingosMixed 34:16:06.4+7:30:02.8+28.02%78.11%-4.71%-4.14%
59149Monsters of the Midway...Wait Were Only Mixed 34:19:11.4+7:33:07.8+28.21%77.99%-4.86%-4.29%
60342Resting Beach FacesMixed 34:21:48.2+7:35:44.6+28.38%77.90%-5.00%-4.43%
61207Keeping Up with the KidsMixed 34:24:14.1+7:38:10.5+28.53%77.80%-5.12%-4.55%
6254Need for SpeedMixed 34:24:21.7+7:38:18.1+28.54%77.80%-5.13%-4.55%
6397Just Keep RunningMixed 34:31:32.3+7:45:28.7+28.98%77.53%-5.49%-4.92%
64424This Game of Tag SucksMixed 34:33:16.9+7:47:13.3+29.09%77.46%-5.58%-5.01%
65433NES Heroes Vs. VilliansMixed 34:38:40.8+7:52:37.2+29.43%77.26%-5.85%-5.28%
66319Just Run With ItMixed 34:43:03.4+7:56:59.8+29.70%77.10%-6.08%-5.50%
67467Blood Sweat & Beers_SnowmanMixed 34:54:07.5+8:08:03.9+30.39%76.69%-6.64%-6.06%
68145120 ToesMixed 35:02:28.1+8:16:24.5+30.91%76.39%-7.07%-6.48%
6976#youareitMixed 35:18:33.8+8:32:30.2+31.91%75.81%-7.89%-7.30%
70200Resting Beach Face_HarringtonMixed 35:29:27.4+8:43:23.8+32.59%75.42%-8.44%-7.85%
71325NSKA- Dont Think Just DoMixed 35:37:21.9+8:51:18.3+33.08%75.14%-8.84%-8.25%
7246Rock Your BodyMixed 35:37:59.6+8:51:56.0+33.12%75.12%-8.88%-8.28%
73293The KingstoniansMixed 35:39:04.8+8:53:01.2+33.19%75.08%-8.93%-8.34%
74215SLOW BUT NOT STEADYMixed 36:27:54.8+9:41:51.2+36.23%73.41%-11.42%-10.81%
75288Bucket ListersMixed 36:41:24.0+9:55:20.4+37.07%72.96%-12.10%-11.50%
76271Bunch of BoobsMixed 36:47:07.9+10:01:04.3+37.43%72.77%-12.40%-11.79%
7741Between a Walk and a Hard PaceMixed 36:51:04.8+10:05:01.2+37.67%72.64%-12.60%-11.99%
78175RagnerdsMixed 36:54:50.2+10:08:46.6+37.90%72.51%-12.79%-12.18%
79246TCRC PEEPSMixed 37:08:43.3+10:22:39.7+38.77%72.06%-13.50%-12.88%
80464Nuts N HoneysMixed 41:16:54.3+14:30:50.7+54.22%64.84%-26.13%-25.45%
-389NES Hitchhikers Guide to RagnarMixed DNF-----